Time;durP1;ratioP1;P1;durP2;ratioP2;P2;SDS_P1;SDS_P2;PMS_P1;PMS_P2;Temp;Humidity;BMP_temperature;BMP_pressure;BME280_temperature;BME280_humidity;BME280_pressure;Samples;Min_cycle;Max_cycle;Signal;HPM_P1;HPM_P2
2023/10/11 00:03:04;;;;;;;1999.90;999.90;;;20.80;28.90;;;;;;5114019;28;20833;-71
2023/10/11 00:05:39;;;;;;;1999.90;999.90;;;20.80;29.00;;;;;;5114825;28;20913;-70
2023/10/11 00:08:07;;;;;;;1999.90;999.90;;;20.80;29.30;;;;;;5114506;28;20498;-71
2023/10/11 00:10:43;;;;;;;1999.90;999.90;;;20.70;29.50;;;;;;5114623;28;20523;-71
2023/10/11 00:13:11;;;;;;;1999.90;999.90;;;20.70;29.70;;;;;;5114595;28;20456;-71
2023/10/11 00:15:37;;;;;;;1999.90;999.90;;;20.60;30.30;;;;;;5114654;28;20411;-70
2023/10/11 00:18:02;;;;;;;1999.90;999.90;;;20.60;30.60;;;;;;5114376;28;20411;-70
2023/10/11 00:20:35;;;;;;;1999.90;999.90;;;20.60;31.00;;;;;;5114452;28;20234;-71
2023/10/11 00:23:13;;;;;;;1999.90;999.90;;;20.60;31.40;;;;;;5114583;28;20557;-70
2023/10/11 00:25:39;;;;;;;1999.90;999.90;;;20.60;31.60;;;;;;5114346;28;20397;-71
2023/10/11 00:28:08;;;;;;;1999.90;999.90;;;20.60;32.20;;;;;;5114272;28;20942;-70
2023/10/11 00:30:38;;;;;;;1999.90;999.90;;;20.50;32.30;;;;;;5114168;28;20433;-70
2023/10/11 00:33:04;;;;;;;1999.90;999.90;;;20.60;33.20;;;;;;5114139;28;20917;-71
2023/10/11 00:35:32;;;;;;;1999.90;999.90;;;20.50;33.90;;;;;;5114085;28;20519;-70
2023/10/11 00:38:00;;;;;;;1999.90;999.90;;;20.40;34.20;;;;;;5113877;28;21016;-71
2023/10/11 00:40:28;;;;;;;1999.90;999.90;;;20.40;34.70;;;;;;5114056;28;20430;-70
2023/10/11 00:42:54;;;;;;;1999.90;999.90;;;20.30;35.10;;;;;;5113982;28;20474;-71
2023/10/11 00:45:23;;;;;;;1999.90;999.90;;;20.40;35.60;;;;;;5113928;28;20409;-71
2023/10/11 00:47:51;;;;;;;1999.90;999.90;;;20.30;36.30;;;;;;5113677;28;20396;-70
2023/10/11 00:50:18;;;;;;;1999.90;999.90;;;20.30;36.80;;;;;;5113834;28;20396;-70
2023/10/11 00:52:48;;;;;;;1999.90;999.90;;;20.30;37.10;;;;;;5113900;28;20787;-71
2023/10/11 00:55:19;;;;;;;1999.90;999.90;;;20.30;37.80;;;;;;5113773;28;20415;-71
2023/10/11 00:57:47;;;;;;;1999.90;999.90;;;20.30;38.20;;;;;;5113567;28;20399;-70
2023/10/11 01:00:16;;;;;;;1999.90;999.90;;;20.30;39.00;;;;;;5113693;28;20958;-71
2023/10/11 01:02:45;;;;;;;1999.90;999.90;;;20.30;39.30;;;;;;5113490;28;20417;-70
2023/10/11 01:05:16;;;;;;;1999.90;999.90;;;20.30;40.10;;;;;;5113722;28;20372;-70
2023/10/11 01:07:42;;;;;;;1999.90;999.90;;;20.30;41.30;;;;;;5113377;28;20400;-71
2023/10/11 01:10:08;;;;;;;1999.90;999.90;;;20.30;41.50;;;;;;5113172;28;20398;-71
2023/10/11 01:12:34;;;;;;;1999.90;999.90;;;20.30;41.90;;;;;;5113330;28;20892;-71
2023/10/11 01:15:01;;;;;;;1999.90;999.90;;;20.30;42.40;;;;;;5112909;28;20412;-70
2023/10/11 01:17:27;;;;;;;1999.90;999.90;;;20.30;43.00;;;;;;5113156;28;20404;-71
2023/10/11 01:19:53;;;;;;;1999.90;999.90;;;20.20;43.70;;;;;;5113409;28;20406;-71
2023/10/11 01:22:19;;;;;;;1999.90;999.90;;;20.20;44.50;;;;;;5113087;28;20453;-70
2023/10/11 01:24:47;;;;;;;1999.90;999.90;;;20.20;45.70;;;;;;5113078;28;20163;-70
2023/10/11 01:27:14;;;;;;;1999.90;999.90;;;20.20;46.40;;;;;;5113152;28;20409;-70
2023/10/11 01:29:43;;;;;;;1999.90;999.90;;;20.20;46.70;;;;;;5112807;28;20410;-70
2023/10/11 01:32:10;;;;;;;1999.90;999.90;;;20.10;47.70;;;;;;5112994;28;20943;-70
2023/10/11 01:34:36;;;;;;;1999.90;999.90;;;20.10;48.20;;;;;;5113165;28;20413;-70
2023/10/11 01:37:01;;;;;;;1999.90;999.90;;;20.00;49.20;;;;;;5112916;28;20416;-70
2023/10/11 01:39:27;;;;;;;1999.90;999.90;;;20.00;49.80;;;;;;5112725;28;20405;-70
2023/10/11 01:41:58;;;;;;;1999.90;999.90;;;20.00;50.30;;;;;;5112711;28;20723;-71
2023/10/11 01:44:24;;;;;;;1999.90;999.90;;;19.90;51.60;;;;;;5113187;28;20686;-70
2023/10/11 01:46:50;;;;;;;1999.90;999.90;;;19.90;51.90;;;;;;5112823;28;20973;-70
2023/10/11 01:49:15;;;;;;;1999.90;999.90;;;19.90;53.10;;;;;;5112594;28;20396;-70
2023/10/11 01:51:47;;;;;;;1999.90;999.90;;;19.90;53.70;;;;;;5112637;28;20200;-70
2023/10/11 01:54:17;;;;;;;1999.90;999.90;;;19.80;54.60;;;;;;5112654;28;20223;-71
2023/10/11 01:56:42;;;;;;;1999.90;999.90;;;19.90;55.40;;;;;;5112837;28;20414;-71
2023/10/11 01:59:11;;;;;;;1999.90;999.90;;;19.80;55.80;;;;;;5112443;28;20442;-70
2023/10/11 02:01:40;;;;;;;1999.90;999.90;;;19.80;56.40;;;;;;5112427;28;20568;-70
2023/10/11 02:04:20;;;;;;;1999.90;999.90;;;19.90;56.70;;;;;;5112586;28;20491;-70
2023/10/11 02:06:49;;;;;;;1999.90;999.90;;;19.80;57.20;;;;;;5112500;28;20399;-71
2023/10/11 02:09:19;;;;;;;1999.90;999.90;;;19.70;58.30;;;;;;5112148;28;20887;-71
2023/10/11 02:11:45;;;;;;;1999.90;999.90;;;19.70;59.20;;;;;;5112192;28;20455;-70
2023/10/11 02:14:13;;;;;;;1999.90;999.90;;;19.60;60.70;;;;;;5112544;28;20555;-70
2023/10/11 02:16:39;;;;;;;1999.90;999.90;;;19.60;62.40;;;;;;5112512;28;20761;-70
2023/10/11 02:19:05;;;;;;;1999.90;999.90;;;19.60;63.80;;;;;;5112166;28;20397;-70
2023/10/11 02:21:31;;;;;;;1999.90;999.90;;;19.60;65.10;;;;;;5112155;28;20450;-70
2023/10/11 02:23:57;;;;;;;1999.90;999.90;;;19.50;66.80;;;;;;5112298;28;20781;-70
2023/10/11 02:26:28;;;;;;;1999.90;999.90;;;19.50;70.00;;;;;;5115950;28;20195;-71
2023/10/11 02:28:54;;;;;;;1999.90;999.90;;;19.40;72.30;;;;;;5119105;28;20820;-70
2023/10/11 02:31:20;;;;;;;1999.90;999.90;;;19.40;74.80;;;;;;5119007;28;20424;-71
2023/10/11 02:33:51;;;;;;;1999.90;999.90;;;19.30;76.20;;;;;;5119086;28;20172;-71
2023/10/11 02:36:18;;;;;;;1999.90;999.90;;;19.30;78.10;;;;;;5119022;28;20406;-71
2023/10/11 02:38:47;;;;;;;1999.90;999.90;;;19.20;80.40;;;;;;5118972;28;20398;-70
2023/10/11 02:41:17;;;;;;;1999.90;999.90;;;19.10;82.30;;;;;;5118858;27;20427;-70
2023/10/11 02:43:49;;;;;;;1999.90;999.90;;;19.00;83.30;;;;;;5119058;28;20403;-70
2023/10/11 02:46:16;;;;;;;1999.90;999.90;;;19.00;85.20;;;;;;5119019;28;20922;-70
2023/10/11 02:48:46;;;;;;;1999.90;999.90;;;19.10;86.20;;;;;;5118605;28;20432;-71
2023/10/11 02:51:17;;;;;;;1999.90;999.90;;;19.00;87.30;;;;;;5118821;28;20483;-70
2023/10/11 02:53:45;;;;;;;1999.90;999.90;;;19.10;86.80;;;;;;5118830;28;20397;-70
2023/10/11 02:56:11;;;;;;;1999.90;999.90;;;19.10;87.40;;;;;;5118861;28;20409;-71
2023/10/11 02:58:40;;;;;;;1999.90;999.90;;;19.10;87.30;;;;;;5118713;28;20452;-70
2023/10/11 03:01:16;;;;;;;1999.90;999.90;;;19.10;87.60;;;;;;5118635;28;20466;-71
2023/10/11 03:03:43;;;;;;;1999.90;999.90;;;19.10;88.00;;;;;;5119017;28;20451;-70
2023/10/11 03:06:09;;;;;;;1999.90;999.90;;;19.00;88.20;;;;;;5118762;28;20496;-71
2023/10/11 03:08:37;;;;;;;1999.90;999.90;;;19.00;89.00;;;;;;5118790;28;20774;-70
2023/10/11 03:11:08;;;;;;;1999.90;999.90;;;18.90;89.90;;;;;;5118569;28;20594;-70
2023/10/11 03:13:41;;;;;;;1999.90;999.90;;;18.80;90.10;;;;;;5118734;28;20457;-70
2023/10/11 03:16:13;;;;;;;1999.90;999.90;;;18.80;90.60;;;;;;5118632;28;20891;-70
2023/10/11 03:18:40;;;;;;;1999.90;999.90;;;18.80;91.10;;;;;;5118633;28;20493;-70
2023/10/11 03:21:20;;;;;;;1999.90;999.90;;;18.70;91.40;;;;;;5118509;28;20417;-71
2023/10/11 03:23:47;;;;;;;1999.90;999.90;;;18.70;91.80;;;;;;5118619;28;20406;-70
2023/10/11 03:26:33;;;;;;;1999.90;999.90;;;18.80;91.60;;;;;;5118452;28;20871;-70
2023/10/11 03:29:03;;;;;;;1999.90;999.90;;;18.80;91.60;;;;;;5118431;28;20401;-71
2023/10/11 03:31:31;;;;;;;1999.90;999.90;;;18.70;91.60;;;;;;5118462;28;20914;-70
2023/10/11 03:34:22;;;;;;;1999.90;999.90;;;18.70;91.70;;;;;;5118598;28;20418;-70
2023/10/11 03:36:51;;;;;;;1999.90;999.90;;;18.70;91.50;;;;;;5118047;28;20942;-70
2023/10/11 03:42:14;;;;;;;1999.90;999.90;;;18.70;91.40;;;;;;5115269;28;20553;-70
2023/10/11 03:44:40;;;;;;;1999.90;999.90;;;18.70;91.60;;;;;;5115098;28;20417;-70
2023/10/11 03:47:09;;;;;;;1999.90;999.90;;;18.70;90.60;;;;;;5115057;28;20400;-70
2023/10/11 03:52:22;;;;;;;1999.90;999.90;;;18.60;90.80;;;;;;5114951;28;21103;-70
2023/10/11 03:54:49;;;;;;;1999.90;999.90;;;18.50;90.80;;;;;;5115103;28;20400;-70
2023/10/11 03:57:17;;;;;;;1999.90;999.90;;;18.50;90.90;;;;;;5114828;28;20418;-71
2023/10/11 03:59:48;;;;;;;1999.90;999.90;;;18.50;90.00;;;;;;5114938;28;20403;-70
2023/10/11 04:02:16;;;;;;;1999.90;999.90;;;18.60;89.80;;;;;;5114882;28;20595;-71
2023/10/11 04:04:42;;;;;;;1999.90;999.90;;;18.60;88.50;;;;;;5114953;28;20466;-70
2023/10/11 04:07:12;;;;;;;1999.90;999.90;;;18.70;87.30;;;;;;5114646;28;20864;-70
2023/10/11 04:09:44;;;;;;;1999.90;999.90;;;18.70;86.40;;;;;;5114485;28;20902;-70
2023/10/11 04:12:10;;;;;;;1999.90;999.90;;;18.70;85.60;;;;;;5114487;28;20833;-70
2023/10/11 04:14:46;;;;;;;1999.90;999.90;;;18.80;85.30;;;;;;5114615;28;20428;-70
2023/10/11 04:19:49;;;;;;;1999.90;999.90;;;18.80;82.60;;;;;;5114741;28;20949;-70
2023/10/11 04:22:23;;;;;;;1999.90;999.90;;;18.80;81.20;;;;;;5114244;28;20451;-70
2023/10/11 04:24:53;;;;;;;1999.90;999.90;;;18.90;79.90;;;;;;5114696;28;20405;-70
2023/10/11 04:29:51;;;;;;;1999.90;999.90;;;18.90;77.60;;;;;;5094088;28;20406;-70
2023/10/11 04:35:02;;;;;;;1999.90;999.90;;;18.90;75.50;;;;;;5094002;28;20521;-70
2023/10/11 04:37:29;;;;;;;1999.90;999.90;;;19.00;74.70;;;;;;5093718;28;20506;-71
2023/10/11 04:39:57;;;;;;;1999.90;999.90;;;19.00;74.20;;;;;;5093655;28;20437;-70
2023/10/11 04:42:32;;;;;;;1999.90;999.90;;;19.00;73.10;;;;;;5093603;28;20452;-70
2023/10/11 04:44:58;;;;;;;1999.90;999.90;;;19.00;72.30;;;;;;5093709;28;20431;-70
2023/10/11 04:47:24;;;;;;;1999.90;999.90;;;19.10;71.10;;;;;;5093258;28;20428;-70
2023/10/11 04:49:52;;;;;;;1999.90;999.90;;;19.10;70.20;;;;;;5093391;28;20188;-71
2023/10/11 04:52:31;;;;;;;1999.90;999.90;;;19.00;70.00;;;;;;5093379;28;20434;-71
2023/10/11 04:54:56;;;;;;;1999.90;999.90;;;19.10;69.60;;;;;;5093490;28;20497;-70
2023/10/11 04:57:36;;;;;;;1999.90;999.90;;;19.10;68.30;;;;;;5093104;28;20491;-71
2023/10/11 05:00:07;;;;;;;1999.90;999.90;;;19.10;67.70;;;;;;5093326;28;20291;-70
2023/10/11 05:02:32;;;;;;;1999.90;999.90;;;19.10;66.70;;;;;;5093157;28;20449;-70
2023/10/11 05:05:05;;;;;;;1999.90;999.90;;;19.10;65.90;;;;;;5093230;28;20405;-70
2023/10/11 05:07:32;;;;;;;1999.90;999.90;;;19.10;65.90;;;;;;5093022;28;20173;-70
2023/10/11 05:10:23;;;;;;;1999.90;999.90;;;19.10;64.50;;;;;;5093173;28;20403;-70
2023/10/11 05:12:47;;;;;;;1999.90;999.90;;;19.20;64.40;;;;;;5096622;28;20847;-70
2023/10/11 05:15:15;;;;;;;1999.90;999.90;;;19.20;63.40;;;;;;5105821;28;20408;-70
2023/10/11 05:17:41;;;;;;;1999.90;999.90;;;19.20;62.70;;;;;;5113295;28;20410;-70
2023/10/11 05:20:22;;;;;;;1999.90;999.90;;;19.20;62.30;;;;;;5113230;28;20447;-69
2023/10/11 05:22:53;;;;;;;1999.90;999.90;;;19.10;61.90;;;;;;5103581;28;20450;-71
2023/10/11 05:27:49;;;;;;;1999.90;999.90;;;19.10;62.30;;;;;;5100417;28;20407;-71
2023/10/11 05:30:33;;;;;;;1999.90;999.90;;;19.00;62.50;;;;;;5104728;28;20176;-69
2023/10/11 05:52:39;;;;;;;1999.90;999.90;;;19.10;59.70;;;;;;5092650;28;20395;-69
2023/10/11 05:55:06;;;;;;;1999.90;999.90;;;19.00;60.80;;;;;;5092412;28;20887;-69
2023/10/11 05:57:32;;;;;;;1999.90;999.90;;;19.00;60.40;;;;;;5092273;28;20173;-69
2023/10/11 06:00:02;;;;;;;1999.90;999.90;;;19.00;59.60;;;;;;5092054;28;20903;-69
2023/10/11 06:02:28;;;;;;;1999.90;999.90;;;19.00;59.60;;;;;;5092043;28;20656;-69
2023/10/11 06:04:55;;;;;;;1999.90;999.90;;;19.00;59.50;;;;;;5092246;28;20488;-70
2023/10/11 06:07:21;;;;;;;1999.90;999.90;;;19.00;59.70;;;;;;5091883;28;20177;-69
2023/10/11 06:09:52;;;;;;;1999.90;999.90;;;19.10;58.70;;;;;;5092080;28;20406;-69
2023/10/11 06:12:26;;;;;;;1999.90;999.90;;;19.10;58.70;;;;;;5091926;28;20219;-68
2023/10/11 06:14:53;;;;;;;1999.90;999.90;;;19.20;57.90;;;;;;5092075;28;20428;-69
2023/10/11 06:17:32;;;;;;;1999.90;999.90;;;19.30;57.20;;;;;;5092006;28;20404;-69
2023/10/11 06:20:10;;;;;;;1999.90;999.90;;;19.30;57.70;;;;;;5092232;28;20401;-69
2023/10/11 06:22:36;;;;;;;1999.90;999.90;;;19.30;55.90;;;;;;5092022;28;20448;-69
2023/10/11 06:25:07;;;;;;;1999.90;999.90;;;19.20;57.30;;;;;;5092039;28;20775;-69
2023/10/11 06:30:17;;;;;;;1999.90;999.90;;;19.30;55.20;;;;;;5099095;28;20463;-69
2023/10/11 06:32:43;;;;;;;1999.90;999.90;;;19.40;54.70;;;;;;5108382;28;20913;-69
2023/10/11 06:35:16;;;;;;;1999.90;999.90;;;19.40;54.70;;;;;;5092077;28;20607;-69
2023/10/11 06:37:42;;;;;;;1999.90;999.90;;;19.40;53.50;;;;;;5091694;28;20182;-69
2023/10/11 06:40:14;;;;;;;1999.90;999.90;;;19.50;52.40;;;;;;5091754;28;20502;-70
2023/10/11 06:42:40;;;;;;;1999.90;999.90;;;19.50;52.30;;;;;;5091783;28;20215;-69
2023/10/11 06:45:16;;;;;;;1999.90;999.90;;;19.50;51.50;;;;;;5094609;28;20934;-69
2023/10/11 06:47:42;;;;;;;1999.90;999.90;;;19.60;51.50;;;;;;5107912;28;20417;-69
2023/10/11 06:50:11;;;;;;;1999.90;999.90;;;19.60;50.80;;;;;;5111898;28;20897;-70
2023/10/11 06:52:43;;;;;;;1999.90;999.90;;;19.60;51.80;;;;;;5111985;28;20452;-69
2023/10/11 06:57:39;;;;;;;1999.90;999.90;;;19.70;49.90;;;;;;5110856;28;20923;-70
2023/10/11 07:00:24;;;;;;;1999.90;999.90;;;19.70;49.30;;;;;;5099414;28;20421;-69
2023/10/11 07:03:26;;;;;;;1999.90;999.90;;;19.80;50.30;;;;;;5095597;28;20512;-70
2023/10/11 07:05:59;;;;;;;1999.90;999.90;;;19.80;49.20;;;;;;5108960;28;20438;-69
2023/10/11 07:08:31;;;;;;;1999.90;999.90;;;19.80;48.50;;;;;;5112137;28;20416;-69
2023/10/11 07:11:16;;;;;;;1999.90;999.90;;;19.80;48.00;;;;;;5105949;28;21182;-69
2023/10/11 07:13:57;;;;;;;1999.90;999.90;;;19.90;49.10;;;;;;5096231;28;20400;-69
2023/10/11 07:16:27;;;;;;;1999.90;999.90;;;20.00;48.20;;;;;;5096373;28;20439;-69
2023/10/11 07:18:57;;;;;;;1999.90;999.90;;;20.00;48.20;;;;;;5107073;28;20755;-70
2023/10/11 07:21:27;;;;;;;1999.90;999.90;;;20.00;48.60;;;;;;5115420;28;20902;-69
2023/10/11 07:26:23;;;;;;;1999.90;999.90;;;20.00;47.90;;;;;;5115529;28;20929;-70
2023/10/11 07:28:52;;;;;;;1999.90;999.90;;;20.10;48.20;;;;;;5115380;28;20393;-69
2023/10/11 07:31:32;;;;;;;1999.90;999.90;;;20.00;48.40;;;;;;5115299;28;20467;-68
2023/10/11 07:34:10;;;;;;;1999.90;999.90;;;20.00;49.10;;;;;;5115321;28;20430;-69
2023/10/11 07:36:37;;;;;;;1999.90;999.90;;;20.10;49.80;;;;;;5115335;28;20479;-69
2023/10/11 07:39:14;;;;;;;1999.90;999.90;;;20.20;49.20;;;;;;5115301;28;20499;-69
2023/10/11 07:41:42;;;;;;;1999.90;999.90;;;20.20;48.60;;;;;;5115032;28;20454;-69
2023/10/11 07:44:09;;;;;;;1999.90;999.90;;;20.30;51.00;;;;;;5115160;28;20405;-69
2023/10/11 07:46:37;;;;;;;1999.90;999.90;;;20.30;51.20;;;;;;5115283;28;20402;-69
2023/10/11 07:49:04;;;;;;;1999.90;999.90;;;20.40;48.90;;;;;;5114900;28;20457;-69
2023/10/11 07:51:35;;;;;;;1999.90;999.90;;;20.60;46.90;;;;;;5115071;28;20532;-69
2023/10/11 07:54:06;;;;;;;1999.90;999.90;;;20.70;45.90;;;;;;5115074;28;20939;-70
2023/10/11 07:56:35;;;;;;;1999.90;999.90;;;20.60;46.50;;;;;;5115006;28;20792;-70
2023/10/11 07:59:08;;;;;;;1999.90;999.90;;;20.80;46.80;;;;;;5114656;28;20417;-70
2023/10/11 08:01:44;;;;;;;1999.90;999.90;;;20.90;48.00;;;;;;5114677;28;20452;-71
2023/10/11 08:04:21;;;;;;;1999.90;999.90;;;21.00;45.40;;;;;;5114990;28;20401;-71
2023/10/11 08:06:51;;;;;;;1999.90;999.90;;;21.00;44.50;;;;;;5114741;28;20406;-70
2023/10/11 08:09:19;;;;;;;1999.90;999.90;;;21.10;43.10;;;;;;5114489;28;20778;-70
2023/10/11 08:11:59;;;;;;;1999.90;999.90;;;21.20;42.80;;;;;;5114549;28;20486;-71
2023/10/11 08:14:29;;;;;;;1999.90;999.90;;;21.20;43.30;;;;;;5114689;28;20436;-70
2023/10/11 08:16:56;;;;;;;1999.90;999.90;;;21.30;43.00;;;;;;5114516;28;20397;-70
2023/10/11 08:19:22;;;;;;;1999.90;999.90;;;21.40;41.80;;;;;;5114235;28;20410;-70
2023/10/11 08:21:54;;;;;;;1999.90;999.90;;;21.40;42.90;;;;;;5114223;28;20453;-70
2023/10/11 08:24:27;;;;;;;1999.90;999.90;;;21.40;41.40;;;;;;5115026;28;20432;-71
2023/10/11 08:26:57;;;;;;;1999.90;999.90;;;21.50;40.90;;;;;;5116219;28;20418;-70
2023/10/11 08:29:29;;;;;;;1999.90;999.90;;;21.50;41.20;;;;;;5115872;28;20410;-71
2023/10/11 08:31:57;;;;;;;1999.90;999.90;;;21.60;41.50;;;;;;5115573;28;20436;-71
2023/10/11 08:34:27;;;;;;;1999.90;999.90;;;21.60;40.60;;;;;;5115581;28;20417;-70
2023/10/11 08:36:54;;;;;;;1999.90;999.90;;;21.70;40.80;;;;;;5116089;28;20410;-71
2023/10/11 08:39:27;;;;;;;1999.90;999.90;;;21.80;40.90;;;;;;5115807;28;20449;-70
2023/10/11 08:41:58;;;;;;;1999.90;999.90;;;21.80;41.40;;;;;;5116000;28;20459;-71
2023/10/11 08:44:27;;;;;;;1999.90;999.90;;;21.90;40.60;;;;;;5116040;28;20431;-71
2023/10/11 08:46:56;;;;;;;1999.90;999.90;;;22.00;42.00;;;;;;5115513;28;20853;-71
2023/10/11 08:49:22;;;;;;;1999.90;999.90;;;22.00;43.00;;;;;;5115717;28;20685;-71
2023/10/11 08:51:53;;;;;;;1999.90;999.90;;;22.10;39.90;;;;;;5115736;28;20432;-70
2023/10/11 08:54:25;;;;;;;1999.90;999.90;;;22.10;40.60;;;;;;5115872;28;20492;-71
2023/10/11 08:56:54;;;;;;;1999.90;999.90;;;22.30;39.80;;;;;;5115600;28;20734;-70
2023/10/11 08:59:25;;;;;;;1999.90;999.90;;;22.30;40.70;;;;;;5115421;28;20434;-69
2023/10/11 09:01:53;;;;;;;1999.90;999.90;;;22.30;40.90;;;;;;5115314;28;20437;-70
2023/10/11 09:04:26;;;;;;;1999.90;999.90;;;22.40;43.60;;;;;;5114954;28;20414;-71
2023/10/11 09:06:57;;;;;;;1999.90;999.90;;;22.50;41.30;;;;;;5115577;28;20402;-71
2023/10/11 09:09:34;;;;;;;1999.90;999.90;;;22.60;39.80;;;;;;5115839;28;20784;-71
2023/10/11 09:11:59;;;;;;;1999.90;999.90;;;22.70;40.00;;;;;;5115658;28;20478;-71
2023/10/11 09:14:28;;;;;;;1999.90;999.90;;;22.70;39.30;;;;;;5115990;28;20385;-71
2023/10/11 09:16:58;;;;;;;1999.90;999.90;;;22.70;42.10;;;;;;5115292;28;20524;-71
2023/10/11 09:19:28;;;;;;;1999.90;999.90;;;22.80;40.60;;;;;;5115331;28;20415;-71
2023/10/11 09:22:02;;;;;;;1999.90;999.90;;;22.90;38.70;;;;;;5115055;28;20437;-71
2023/10/11 09:24:38;;;;;;;1999.90;999.90;;;22.90;42.50;;;;;;5115269;28;20257;-71
2023/10/11 09:27:18;;;;;;;1999.90;999.90;;;23.00;40.00;;;;;;5114657;28;20902;-71
2023/10/11 09:29:48;;;;;;;1999.90;999.90;;;23.10;36.40;;;;;;5114355;28;20458;-71
2023/10/11 09:32:19;;;;;;;1999.90;999.90;;;23.00;35.20;;;;;;5114225;28;20469;-71
2023/10/11 09:34:46;;;;;;;1999.90;999.90;;;22.90;36.80;;;;;;5113957;28;20816;-70
2023/10/11 09:37:12;;;;;;;1999.90;999.90;;;23.00;33.70;;;;;;5114052;28;20446;-71
2023/10/11 09:39:42;;;;;;;1999.90;999.90;;;23.10;33.50;;;;;;5114506;28;20407;-71
2023/10/11 09:42:11;;;;;;;1999.90;999.90;;;23.10;32.10;;;;;;5114226;28;20465;-71
2023/10/11 09:44:43;;;;;;;1999.90;999.90;;;23.10;30.90;;;;;;5114078;28;20414;-69
2023/10/11 09:47:16;;;;;;;1999.90;999.90;;;23.10;31.00;;;;;;5114168;28;20396;-70
2023/10/11 09:49:42;;;;;;;1999.90;999.90;;;23.10;31.00;;;;;;5113919;28;20410;-70
2023/10/11 09:52:23;;;;;;;1999.90;999.90;;;23.20;30.50;;;;;;5113826;28;20394;-71
2023/10/11 09:54:51;;;;;;;1999.90;999.90;;;23.20;29.80;;;;;;5114151;28;20831;-71
2023/10/11 09:57:35;;;;;;;1999.90;999.90;;;23.30;30.00;;;;;;5113504;28;20382;-72
2023/10/11 10:00:08;;;;;;;1999.90;999.90;;;23.40;30.60;;;;;;5113696;28;20400;-71
2023/10/11 10:02:36;;;;;;;1999.90;999.90;;;23.40;28.40;;;;;;5113706;28;20528;-71
2023/10/11 10:05:05;;;;;;;1999.90;999.90;;;23.40;29.00;;;;;;5113818;28;20378;-72
2023/10/11 10:07:44;;;;;;;1999.90;999.90;;;23.50;27.50;;;;;;5113167;28;20381;-71
2023/10/11 10:10:15;;;;;;;1999.90;999.90;;;23.60;28.00;;;;;;5113095;28;20418;-70
2023/10/11 10:13:06;;;;;;;1999.90;999.90;;;23.60;25.80;;;;;;5114193;28;20824;-71
2023/10/11 10:15:57;;;;;;;1999.90;999.90;;;23.60;27.20;;;;;;5113899;28;20374;-71
2023/10/11 10:18:24;;;;;;;1999.90;999.90;;;23.60;25.40;;;;;;5113510;28;20400;-71
2023/10/11 10:21:02;;;;;;;1999.90;999.90;;;23.60;26.00;;;;;;5113707;28;20543;-70
2023/10/11 10:23:32;;;;;;;1999.90;999.90;;;23.60;24.70;;;;;;5113651;28;20967;-70
2023/10/11 10:26:04;;;;;;;1999.90;999.90;;;23.60;25.30;;;;;;5113736;28;20418;-71
2023/10/11 10:28:35;;;;;;;1999.90;999.90;;;23.80;25.20;;;;;;5113089;28;20899;-70
2023/10/11 10:31:11;;;;;;;1999.90;999.90;;;24.00;24.60;;;;;;5113682;28;20817;-71
2023/10/11 10:33:40;;;;;;;1999.90;999.90;;;24.00;24.50;;;;;;5113542;28;20415;-71
2023/10/11 10:36:17;;;;;;;1999.90;999.90;;;24.10;22.70;;;;;;5113361;28;20415;-71
2023/10/11 10:38:58;;;;;;;1999.90;999.90;;;24.10;22.90;;;;;;5113551;28;20439;-71
2023/10/11 10:41:25;;;;;;;1999.90;999.90;;;24.20;21.90;;;;;;5113283;28;20405;-70
2023/10/11 10:44:14;;;;;;;1999.90;999.90;;;24.30;23.30;;;;;;5113663;28;20402;-70
2023/10/11 10:46:59;;;;;;;1999.90;999.90;;;24.40;22.00;;;;;;5114511;28;20396;-70
2023/10/11 10:49:47;;;;;;;1999.90;999.90;;;24.50;20.10;;;;;;5116952;28;20417;-70
2023/10/11 10:52:29;;;;;;;1999.90;999.90;;;24.50;20.50;;;;;;5117666;28;20446;-71
2023/10/11 10:55:01;;;;;;;1999.90;999.90;;;24.60;19.50;;;;;;5118064;28;20802;-70
2023/10/11 10:57:31;;;;;;;1999.90;999.90;;;24.60;19.00;;;;;;5116930;28;20439;-71
2023/10/11 10:59:58;;;;;;;1999.90;999.90;;;24.80;18.00;;;;;;5117794;28;20498;-70
2023/10/11 11:02:24;;;;;;;1999.90;999.90;;;24.80;17.40;;;;;;5117564;28;20451;-71
2023/10/11 11:04:49;;;;;;;1999.90;999.90;;;24.90;18.10;;;;;;5117715;28;20378;-70
2023/10/11 11:07:25;;;;;;;1999.90;999.90;;;25.00;17.80;;;;;;5117989;28;20252;-70
2023/10/11 11:09:57;;;;;;;1999.90;999.90;;;25.10;16.20;;;;;;5117611;28;20645;-70
2023/10/11 11:12:30;;;;;;;1999.90;999.90;;;25.10;16.00;;;;;;5117017;28;20533;-70
2023/10/11 11:15:00;;;;;;;1999.90;999.90;;;25.10;16.00;;;;;;5117154;28;20924;-70
2023/10/11 11:17:47;;;;;;;1999.90;999.90;;;25.30;15.90;;;;;;5117146;28;20754;-70
2023/10/11 11:20:27;;;;;;;1999.90;999.90;;;25.40;15.50;;;;;;5117656;28;20455;-69
2023/10/11 11:22:54;;;;;;;1999.90;999.90;;;25.70;14.70;;;;;;5086614;28;20430;-70
2023/10/11 11:25:27;;;;;;;1999.90;999.90;;;26.10;11.50;;;;;;5109765;28;20386;-70
2023/10/11 11:28:16;;;;;;;1999.90;999.90;;;26.20;11.00;;;;;;5105850;28;20412;-70
2023/10/11 11:30:51;;;;;;;1999.90;999.90;;;26.40;9.20;;;;;;5077532;28;20512;-72
2023/10/11 11:33:47;;;;;;;1999.90;999.90;;;26.30;9.60;;;;;;5087326;28;20398;-68
2023/10/11 11:36:35;;;;;;;1999.90;999.90;;;26.10;9.10;;;;;;5090395;28;20407;-68
2023/10/11 11:41:52;;;;;;;1999.90;999.90;;;26.20;7.70;;;;;;5089542;28;20498;-68
2023/10/11 11:44:27;;;;;;;1999.90;999.90;;;26.40;7.30;;;;;;5090523;28;20390;-72
2023/10/11 11:46:55;;;;;;;1999.90;999.90;;;26.50;7.30;;;;;;5100290;28;20810;-70
2023/10/11 11:49:23;;;;;;;1999.90;999.90;;;26.60;7.30;;;;;;5107776;28;20431;-70
2023/10/11 11:51:52;;;;;;;1999.90;999.90;;;26.60;5.40;;;;;;5091137;28;20394;-72
2023/10/11 11:54:23;;;;;;;1999.90;999.90;;;26.70;4.90;;;;;;5092500;28;20471;-67
2023/10/11 11:56:54;;;;;;;1999.90;999.90;;;26.70;4.80;;;;;;5093223;28;20897;-69
2023/10/11 11:59:21;;;;;;;1999.90;999.90;;;26.80;5.30;;;;;;5091842;28;20498;-72
2023/10/11 12:01:53;;;;;;;1999.90;999.90;;;27.10;4.80;;;;;;5095844;28;20835;-72
2023/10/11 12:04:29;;;;;;;1999.90;999.90;;;27.20;3.70;;;;;;5094710;28;20409;-72
2023/10/11 12:07:07;;;;;;;1999.90;999.90;;;27.40;2.50;;;;;;5092366;28;20480;-66
2023/10/11 12:09:34;;;;;;;1999.90;999.90;;;27.60;3.10;;;;;;5090983;28;20443;-68
2023/10/11 12:12:08;;;;;;;1999.90;999.90;;;28.00;2.50;;;;;;5091297;28;20454;-67
2023/10/11 12:14:37;;;;;;;1999.90;999.90;;;28.20;1.10;;;;;;5085609;28;20961;-68
2023/10/11 12:17:09;;;;;;;1999.90;999.90;;;28.30;1.00;;;;;;5101493;28;20426;-68
2023/10/11 12:19:36;;;;;;;1999.90;999.90;;;28.40;1.00;;;;;;5109480;28;20446;-69
2023/10/11 12:22:01;;;;;;;1999.90;999.90;;;28.40;1.00;;;;;;5107027;28;20438;-69
2023/10/11 12:24:27;;;;;;;1999.90;999.90;;;28.30;1.00;;;;;;5101730;28;20390;-69
2023/10/11 12:26:57;;;;;;;1999.90;999.90;;;28.10;1.00;;;;;;5109015;28;20174;-69
2023/10/11 12:29:23;;;;;;;1999.90;999.90;;;28.00;1.00;;;;;;5109299;28;20178;-68
2023/10/11 12:31:49;;;;;;;1999.90;999.90;;;27.90;1.00;;;;;;5092711;28;20427;-70
2023/10/11 12:34:16;;;;;;;1999.90;999.90;;;28.10;1.00;;;;;;5099111;28;20885;-70
2023/10/11 12:36:42;;;;;;;1999.90;999.90;;;28.30;1.00;;;;;;5109128;28;20196;-69
2023/10/11 12:39:20;;;;;;;1999.90;999.90;;;28.30;1.00;;;;;;5109867;28;20427;-69
2023/10/11 12:41:48;;;;;;;1999.90;999.90;;;28.20;1.00;;;;;;5109759;28;20342;-70
2023/10/11 12:44:15;;;;;;;1999.90;999.90;;;28.20;1.00;;;;;;5109450;28;20443;-70
2023/10/11 12:46:40;;;;;;;1999.90;999.90;;;28.50;1.00;;;;;;5108536;28;20779;-69
2023/10/11 12:49:12;;;;;;;1999.90;999.90;;;28.70;1.00;;;;;;5108972;28;20382;-70
2023/10/11 12:51:42;;;;;;;1999.90;999.90;;;28.90;1.00;;;;;;5109705;28;20210;-69
2023/10/11 12:54:14;;;;;;;1999.90;999.90;;;28.90;1.00;;;;;;5109086;28;20414;-70
2023/10/11 12:56:42;;;;;;;1999.90;999.90;;;29.20;1.00;;;;;;5108880;28;20419;-69
2023/10/11 12:59:15;;;;;;;1999.90;999.90;;;29.20;1.00;;;;;;5108553;28;20430;-70
2023/10/11 13:01:52;;;;;;;1999.90;999.90;;;29.30;1.00;;;;;;5108967;28;20431;-70
2023/10/11 13:04:23;;;;;;;1999.90;999.90;;;29.70;1.00;;;;;;5108888;28;20823;-69
2023/10/11 13:06:50;;;;;;;1999.90;999.90;;;29.50;1.00;;;;;;5109249;28;20439;-69